Flight Track Log - Related Links

Times and Time Zones

All times are in EDT time to prevent confusion due to time zone crossing. See the UCA3597 flight status page for this flight to view local times or setup timezone preferences in your user account.

Time Position Orientation Groundspeed Altitude Reporting Facility
EDT Latitude Longitude Course Direction KTS MPH feet Rate Location/Type
Tue 05:57:00 PM 40.2840 -76.8716 19° North  Level Estimated
Tue 05:58:00 PM 40.3301 -76.8509 19° North  Level Estimated
Tue 05:59:00 PM 40.3761 -76.8301 19° North  Level Estimated
Tue 06:00:00 PM 40.4221 -76.8094 19° North  Level Estimated
Tue 06:01:00 PM 40.4682 -76.7886 19° North  Level Estimated
Tue 06:02:00 PM 40.5142 -76.7678 19° North  Level Estimated
Tue 06:03:00 PM 40.5602 -76.7469 19° North  Level Estimated
Tue 06:04:00 PM 40.6062 -76.7261 19° North  Level Estimated
Tue 06:05:00 PM 40.6522 -76.7052 19° North  Level Estimated
Tue 06:06:00 PM 40.6982 -76.6842 19° North  Level Estimated
Tue 06:07:00 PM 40.7442 -76.6633 19° North  Level Estimated
Tue 06:08:00 PM 40.7902 -76.6423 19° North  Level Estimated
Tue 06:09:00 PM 40.8362 -76.6213 19° North  Level Estimated
Tue 06:10:00 PM 40.8822 -76.6002 19° North  Level Estimated
Tue 06:11:00 PM 40.9282 -76.5791 19° North  Level Estimated
Tue 06:12:00 PM 40.9742 -76.5581 19° North  Level Estimated
Tue 06:13:00 PM 41.0202 -76.5369 19° North  Level Estimated
Tue 06:14:00 PM 41.0662 -76.5157 19° North  Level Estimated
Tue 06:15:00 PM 41.1121 -76.4946 19° North  Level Estimated
Tue 06:16:00 PM 41.1656 -76.4699 19° North  Level Estimated
Tue 06:17:00 PM 41.2191 -76.4451 19° North  Level Estimated
Tue 06:18:00 PM 41.2726 -76.4203 19° North  Level Estimated
Tue 06:19:00 PM 41.3261 -76.3955 19° North  Level Estimated
Tue 06:20:00 PM 41.3796 -76.3706 19° North  Level Estimated
Tue 06:21:00 PM 41.4331 -76.3457 19° North  Level Estimated
Tue 06:22:00 PM 41.4865 -76.3208 19° North  Level Estimated
Tue 06:23:00 PM 41.5400 -76.2958 19° North  Level Estimated
Tue 06:24:00 PM 41.5935 -76.2708 19° North  Level Estimated
Tue 06:25:00 PM 41.6469 -76.2457 19° North  Level Estimated
Tue 06:26:00 PM 41.7004 -76.2206 19° North  Level Estimated
Tue 06:27:00 PM 41.7538 -76.1954 19° North  Level Estimated
Tue 06:28:00 PM 41.8073 -76.1702 19° North  Level Estimated
Tue 06:29:00 PM 41.8607 -76.1450 19° North  Level Estimated
Tue 06:30:00 PM 41.9141 -76.1197 19° North  Level Estimated
Tue 06:31:00 PM 41.9675 -76.0944 19° North  Level Estimated
Tue 06:32:00 PM 42.0210 -76.0690 19° North  Level Estimated
Tue 06:33:00 PM 42.0744 -76.0436 19° North  Level Estimated
Tue 06:34:00 PM 42.1278 -76.0182 19° North  Level Estimated
Tue 06:35:00 PM 42.1812 -75.9927 19° North  Level Estimated
Tue 06:36:00 PM 42.2084 -75.9796 19° North  Level Estimated
Tue 06:37:00 PM 42.2084 -75.9796 North  Level Estimated
Tue 06:38:00 PM 42.2084 -75.9796 North  Level Estimated
Tue 06:39:00 PM 42.2084 -75.9796 North  Level Estimated
Tue 06:40:00 PM 42.2084 -75.9796 North  Level Estimated
Tue 06:41:00 PM 42.2084 -75.9796 North  Level Estimated
Tue 06:42:00 PM 42.2084 -75.9796 North  Level Estimated
Tue 06:43:00 PM 42.2084 -75.9796 North  Level Estimated
Tue 06:44:00 PM 42.2084 -75.9796 North  Level Estimated
Tue 06:45:00 PM 42.2084 -75.9796 North  Level Estimated

Login

Don't have an account? Register now (free) for customized features, flight alerts, and more!